createdAt,value
2018-10-04T00:01:41.683Z,3.60
2018-10-04T00:04:13.320Z,4.07
2018-10-04T00:06:42.484Z,3.90
2018-10-04T00:09:12.117Z,3.30
2018-10-04T00:11:46.356Z,3.37
2018-10-04T00:14:15.138Z,4.07
2018-10-04T00:16:43.944Z,3.93
2018-10-04T00:19:12.686Z,4.40
2018-10-04T00:21:41.342Z,4.40
2018-10-04T00:24:10.098Z,4.40
2018-10-04T00:26:38.976Z,3.40
2018-10-04T00:29:07.777Z,3.10
2018-10-04T00:31:36.442Z,3.63
2018-10-04T00:34:05.147Z,3.83
2018-10-04T00:36:33.823Z,3.87
2018-10-04T00:39:02.557Z,3.93
2018-10-04T00:41:31.216Z,5.00
2018-10-04T00:44:00.263Z,4.30
2018-10-04T00:46:28.918Z,4.10
2018-10-04T00:48:57.621Z,3.83
2018-10-04T00:51:26.353Z,3.10
2018-10-04T00:53:55.024Z,3.60
2018-10-04T00:56:23.731Z,3.60
2018-10-04T00:58:52.353Z,3.77
2018-10-04T01:01:21.136Z,4.00
2018-10-04T01:03:49.809Z,3.83
2018-10-04T01:06:18.501Z,3.43
2018-10-04T01:08:47.194Z,3.87
2018-10-04T01:11:15.846Z,3.23
2018-10-04T01:13:44.539Z,3.73
2018-10-04T01:16:13.272Z,3.50
2018-10-04T01:18:55.422Z,3.50
2018-10-04T01:21:24.971Z,3.80
2018-10-04T01:23:54.204Z,3.87
2018-10-04T01:26:23.131Z,3.70
2018-10-04T01:28:52.325Z,4.03
2018-10-04T01:31:22.051Z,3.77
2018-10-04T01:33:50.703Z,3.43
2018-10-04T01:36:19.940Z,3.83
2018-10-04T01:38:48.615Z,3.60
2018-10-04T01:41:17.306Z,3.43
2018-10-04T01:43:45.981Z,4.10
2018-10-04T01:46:14.646Z,4.73
2018-10-04T01:48:43.300Z,4.27
2018-10-04T01:51:12.096Z,4.07
2018-10-04T01:53:40.749Z,4.27
2018-10-04T01:56:09.519Z,4.33
2018-10-04T01:58:38.176Z,4.03
2018-10-04T02:01:06.852Z,4.63
2018-10-04T02:03:35.530Z,5.27
2018-10-04T02:06:04.180Z,5.50
2018-10-04T02:08:32.870Z,5.77
2018-10-04T02:11:01.522Z,5.03
2018-10-04T02:13:30.215Z,5.10
2018-10-04T02:15:59.626Z,5.23
2018-10-04T02:18:28.325Z,4.60
2018-10-04T02:20:56.982Z,5.20
2018-10-04T02:23:25.672Z,5.50
2018-10-04T02:25:57.025Z,5.47
2018-10-04T02:28:26.094Z,5.00
2018-10-04T02:30:54.779Z,6.20
2018-10-04T02:33:23.427Z,5.10
2018-10-04T02:35:52.174Z,5.40
2018-10-04T02:38:20.857Z,5.60
2018-10-04T02:40:49.528Z,5.57
2018-10-04T02:43:18.228Z,5.87
2018-10-04T02:45:46.919Z,5.50
2018-10-04T02:48:15.607Z,4.73
2018-10-04T02:50:44.305Z,5.93
2018-10-04T02:53:12.956Z,4.60
2018-10-04T02:55:46.761Z,5.60
2018-10-04T02:58:15.436Z,4.90
2018-10-04T03:00:44.152Z,5.70
2018-10-04T03:03:12.820Z,4.50
2018-10-04T03:05:41.467Z,5.97
2018-10-04T03:08:10.144Z,5.40
2018-10-04T03:10:38.796Z,5.20
2018-10-04T03:13:07.534Z,5.80
2018-10-04T03:15:36.187Z,5.50
2018-10-04T03:18:04.878Z,5.33
2018-10-04T03:20:33.627Z,5.57
2018-10-04T03:23:02.334Z,4.83
2018-10-04T03:25:37.400Z,5.50
2018-10-04T03:28:06.984Z,5.20
2018-10-04T03:30:35.792Z,6.00
2018-10-04T03:33:10.700Z,4.70
2018-10-04T03:35:39.398Z,5.33
2018-10-04T03:38:08.172Z,4.60
2018-10-04T03:40:36.905Z,4.77
2018-10-04T03:43:05.609Z,5.23
2018-10-04T03:45:34.315Z,4.80
2018-10-04T03:48:02.980Z,5.43
2018-10-04T03:50:31.654Z,5.73
2018-10-04T03:53:00.410Z,5.33
2018-10-04T03:55:29.102Z,5.10
2018-10-04T03:57:57.766Z,5.00
2018-10-04T04:00:26.456Z,5.17
2018-10-04T04:02:55.174Z,4.77
2018-10-04T04:05:23.818Z,5.00
2018-10-04T04:07:52.848Z,4.83
2018-10-04T04:10:21.508Z,5.57
2018-10-04T04:12:50.191Z,6.03
2018-10-04T04:15:18.894Z,5.60
2018-10-04T04:17:52.878Z,5.30
2018-10-04T04:20:21.528Z,5.17
2018-10-04T04:22:50.238Z,5.43
2018-10-04T04:25:19.151Z,5.37
2018-10-04T04:27:47.691Z,5.73
2018-10-04T04:30:16.397Z,5.57
2018-10-04T04:32:45.098Z,5.10
2018-10-04T04:35:13.898Z,4.93
2018-10-04T04:37:42.541Z,5.73
2018-10-04T04:40:11.196Z,5.70
2018-10-04T04:42:40.004Z,5.30
2018-10-04T04:45:08.698Z,5.53
2018-10-04T04:47:37.795Z,6.30
2018-10-04T04:50:06.495Z,6.33
2018-10-04T04:52:35.222Z,6.13
2018-10-04T04:55:22.077Z,6.80
2018-10-04T04:57:52.458Z,6.03
2018-10-04T05:00:22.534Z,6.57
2018-10-04T05:02:51.551Z,7.27
2018-10-04T05:05:20.834Z,6.90
2018-10-04T05:07:51.169Z,7.63
2018-10-04T05:10:19.950Z,8.07
2018-10-04T05:12:48.601Z,7.50
2018-10-04T05:15:17.292Z,6.90
2018-10-04T05:17:45.948Z,7.20
2018-10-04T05:20:15.036Z,7.27
2018-10-04T05:22:43.749Z,7.57
2018-10-04T05:25:12.457Z,6.93
2018-10-04T05:27:41.228Z,8.03
2018-10-04T05:30:09.958Z,7.90
2018-10-04T05:32:38.761Z,8.50
2018-10-04T05:35:07.442Z,8.37
2018-10-04T05:37:36.090Z,8.00
2018-10-04T05:40:04.833Z,7.30
2018-10-04T05:42:33.546Z,8.10
2018-10-04T05:45:02.509Z,8.43
2018-10-04T05:47:31.135Z,8.33
2018-10-04T05:50:00.351Z,8.20
2018-10-04T05:52:29.104Z,8.53
2018-10-04T05:54:57.903Z,7.40
2018-10-04T05:57:26.594Z,8.30
2018-10-04T06:00:06.270Z,7.93
2018-10-04T06:02:35.092Z,7.93
2018-10-04T06:05:03.924Z,8.93
2018-10-04T06:07:32.637Z,8.50
2018-10-04T06:10:01.367Z,8.50
2018-10-04T06:12:30.150Z,8.87
2018-10-04T06:14:58.936Z,8.60
2018-10-04T06:17:27.687Z,8.57
2018-10-04T06:19:56.431Z,9.87
2018-10-04T06:22:25.134Z,8.60
2018-10-04T06:24:53.841Z,9.23
2018-10-04T06:27:22.570Z,8.80
2018-10-04T06:29:51.263Z,8.27
2018-10-04T06:32:19.999Z,9.07
2018-10-04T06:34:48.664Z,7.90
2018-10-04T06:37:17.340Z,9.43
2018-10-04T06:39:46.188Z,8.60
2018-10-04T06:42:15.570Z,9.00
2018-10-04T06:44:44.558Z,6.93
2018-10-04T06:47:13.575Z,5.90
2018-10-04T06:49:42.458Z,7.17
2018-10-04T06:52:11.372Z,6.07
2018-10-04T06:54:40.282Z,7.07
2018-10-04T06:57:09.094Z,7.27
2018-10-04T06:59:38.149Z,7.30
2018-10-04T07:02:07.001Z,7.47
2018-10-04T07:04:36.098Z,8.33
2018-10-04T07:07:05.162Z,7.00
2018-10-04T07:09:34.151Z,8.20
2018-10-04T07:12:03.129Z,8.50
2018-10-04T07:14:32.034Z,8.90
2018-10-04T07:17:00.992Z,7.30
2018-10-04T07:19:29.930Z,7.00
2018-10-04T07:21:58.870Z,6.13
2018-10-04T07:24:27.864Z,6.97
2018-10-04T07:26:56.971Z,5.80
2018-10-04T07:29:26.003Z,6.40
2018-10-04T07:31:54.934Z,6.13
2018-10-04T07:34:23.923Z,5.07
2018-10-04T07:36:52.823Z,5.60
2018-10-04T07:39:28.260Z,5.20
2018-10-04T07:41:57.227Z,5.37
2018-10-04T07:44:26.112Z,4.63
2018-10-04T07:46:54.973Z,3.90
2018-10-04T07:49:23.941Z,5.03
2018-10-04T07:51:52.972Z,5.07
2018-10-04T07:54:22.145Z,3.60
2018-10-04T07:56:51.084Z,3.77
2018-10-04T07:59:19.952Z,3.70
2018-10-04T08:01:49.495Z,3.43
2018-10-04T08:04:18.399Z,4.03
2018-10-04T08:06:47.605Z,3.20
2018-10-04T08:09:16.679Z,3.43
2018-10-04T08:11:45.618Z,3.80
2018-10-04T08:14:14.500Z,3.40
2018-10-04T08:16:43.344Z,3.57
2018-10-04T08:19:12.324Z,3.67
2018-10-04T08:21:41.218Z,3.90
2018-10-04T08:24:10.084Z,2.73
2018-10-04T08:26:38.883Z,3.97
2018-10-04T08:29:07.668Z,5.07
2018-10-04T08:31:36.569Z,3.80
2018-10-04T08:34:05.422Z,4.40
2018-10-04T08:36:34.263Z,8.03
2018-10-04T08:39:05.741Z,4.40
2018-10-04T08:41:34.571Z,3.77
2018-10-04T08:44:03.508Z,3.60
2018-10-04T08:46:32.334Z,5.10
2018-10-04T08:49:01.161Z,4.10
2018-10-04T08:51:35.090Z,3.67
2018-10-04T08:54:04.278Z,3.97
2018-10-04T08:56:33.022Z,3.43
2018-10-04T08:59:01.826Z,3.60
2018-10-04T09:01:30.740Z,3.27
2018-10-04T09:04:02.873Z,3.83
2018-10-04T09:06:32.719Z,3.50
2018-10-04T09:09:01.540Z,3.97
2018-10-04T09:11:37.018Z,3.33
2018-10-04T09:14:05.943Z,4.63
2018-10-04T09:16:34.783Z,2.90
2018-10-04T09:19:03.598Z,3.00
2018-10-04T09:21:32.449Z,3.67
2018-10-04T09:24:01.397Z,2.90
2018-10-04T09:26:30.275Z,2.80
2018-10-04T09:29:04.035Z,2.70
2018-10-04T09:31:35.872Z,3.10
2018-10-04T09:34:06.021Z,3.20
2018-10-04T09:36:34.945Z,3.30
2018-10-04T09:39:05.895Z,3.23
2018-10-04T09:41:34.758Z,3.20
2018-10-04T09:44:03.704Z,3.50
2018-10-04T09:46:32.643Z,3.50
2018-10-04T09:49:01.541Z,3.03
2018-10-04T09:51:35.584Z,2.40
2018-10-04T09:54:04.593Z,2.90
2018-10-04T09:56:38.456Z,2.67
2018-10-04T09:59:07.559Z,3.47
2018-10-04T10:03:49.206Z,4.10
2018-10-04T10:06:18.017Z,3.33
2018-10-04T10:08:46.850Z,3.43
2018-10-04T10:11:15.601Z,3.00
2018-10-04T10:13:45.077Z,3.27
2018-10-04T10:16:14.065Z,2.70
2018-10-04T10:18:42.799Z,3.30
2018-10-04T10:21:11.576Z,3.30
2018-10-04T10:23:40.334Z,2.70
2018-10-04T10:26:09.142Z,2.63
2018-10-04T10:28:38.260Z,2.67
2018-10-04T10:31:07.074Z,3.40
2018-10-04T10:33:35.814Z,3.50
2018-10-04T10:36:04.608Z,3.17
2018-10-04T10:38:33.310Z,2.43
2018-10-04T10:41:02.082Z,3.43
2018-10-04T10:43:30.890Z,3.23
2018-10-04T10:45:59.638Z,3.30
2018-10-04T10:48:28.378Z,2.60
2018-10-04T10:50:59.972Z,2.93
2018-10-04T10:53:28.901Z,2.67
2018-10-04T10:55:57.769Z,2.67
2018-10-04T10:58:26.586Z,3.03
2018-10-04T11:00:55.455Z,2.63
2018-10-04T11:03:24.169Z,2.40
2018-10-04T11:05:53.011Z,2.73
2018-10-04T11:08:21.749Z,2.70
2018-10-04T11:10:50.381Z,3.60
2018-10-04T11:13:19.090Z,3.60
2018-10-04T11:15:47.784Z,2.80
2018-10-04T11:18:16.525Z,3.57
2018-10-04T11:20:45.247Z,2.87
2018-10-04T11:23:13.998Z,3.17
2018-10-04T11:25:42.717Z,3.20
2018-10-04T11:28:11.485Z,3.37
2018-10-04T11:30:40.164Z,3.57
2018-10-04T11:33:09.035Z,3.07
2018-10-04T11:35:37.664Z,3.77
2018-10-04T11:38:06.499Z,3.40
2018-10-04T11:40:35.613Z,3.10
2018-10-04T11:43:04.381Z,3.83
2018-10-04T11:45:35.348Z,3.23
2018-10-04T11:48:04.074Z,3.47
2018-10-04T11:50:32.842Z,3.57
2018-10-04T11:53:01.649Z,3.47
2018-10-04T11:55:30.436Z,3.10
2018-10-04T11:57:59.164Z,3.03
2018-10-04T12:00:28.396Z,2.97
2018-10-04T12:02:57.124Z,4.10
2018-10-04T12:05:25.886Z,4.07
2018-10-04T12:07:54.566Z,3.20
2018-10-04T12:10:23.252Z,3.77
2018-10-04T12:12:52.001Z,4.30
2018-10-04T12:15:20.645Z,4.20
2018-10-04T12:17:49.338Z,3.13
2018-10-04T12:20:18.073Z,3.47
2018-10-04T12:22:46.746Z,2.93
2018-10-04T12:25:15.504Z,3.67
2018-10-04T12:27:44.177Z,3.80
2018-10-04T12:30:13.034Z,4.50
2018-10-04T12:32:41.829Z,3.80
2018-10-04T12:35:10.570Z,3.20
2018-10-04T12:37:39.351Z,3.77
2018-10-04T12:40:08.058Z,4.20
2018-10-04T12:42:36.747Z,3.50
2018-10-04T12:45:05.903Z,3.70
2018-10-04T12:47:34.712Z,4.47
2018-10-04T12:50:03.424Z,4.00
2018-10-04T12:52:32.510Z,4.83
2018-10-04T12:55:01.164Z,4.90
2018-10-04T12:57:29.885Z,4.53
2018-10-04T12:59:58.581Z,3.43
2018-10-04T13:02:27.308Z,4.80
2018-10-04T13:04:56.031Z,3.77
2018-10-04T13:07:24.723Z,4.37
2018-10-04T13:09:53.470Z,4.07
2018-10-04T13:12:22.187Z,3.67
2018-10-04T13:14:50.910Z,4.67
2018-10-04T13:17:19.655Z,3.43
2018-10-04T13:19:48.370Z,3.10
2018-10-04T13:22:17.191Z,3.33
2018-10-04T13:24:45.927Z,4.00
2018-10-04T13:27:14.732Z,3.53
2018-10-04T13:29:43.464Z,3.93
2018-10-04T13:32:12.148Z,4.30
2018-10-04T13:34:40.821Z,3.13
2018-10-04T13:37:09.512Z,3.47
2018-10-04T13:39:38.186Z,4.67
2018-10-04T13:42:06.952Z,3.60
2018-10-04T13:44:35.635Z,3.73
2018-10-04T13:47:04.306Z,3.23
2018-10-04T13:49:32.988Z,2.97
2018-10-04T13:52:01.730Z,3.73
2018-10-04T13:54:30.414Z,3.67
2018-10-04T13:56:59.107Z,3.43
2018-10-04T13:59:27.887Z,3.20
2018-10-04T14:01:56.541Z,3.60
2018-10-04T14:04:25.239Z,3.20
2018-10-04T14:06:53.932Z,3.73
2018-10-04T14:09:22.864Z,3.80
2018-10-04T14:11:51.595Z,3.03
2018-10-04T14:14:20.320Z,3.30
2018-10-04T14:16:49.105Z,3.30
2018-10-04T14:19:18.553Z,3.10
2018-10-04T14:21:47.214Z,4.30
2018-10-04T14:24:15.934Z,4.33
2018-10-04T14:26:44.610Z,3.27
2018-10-04T14:29:13.355Z,3.80
2018-10-04T14:31:42.139Z,3.30
2018-10-04T14:34:10.818Z,3.80
2018-10-04T14:36:39.871Z,3.33
2018-10-04T14:39:08.692Z,3.90
2018-10-04T14:41:37.633Z,3.60
2018-10-04T14:44:06.378Z,3.20
2018-10-04T14:46:35.151Z,3.23
2018-10-04T14:49:03.812Z,3.30
2018-10-04T14:51:32.577Z,3.47
2018-10-04T14:54:01.251Z,3.43
2018-10-04T14:56:29.994Z,3.67
2018-10-04T14:58:58.685Z,3.80
2018-10-04T15:01:27.412Z,3.50
2018-10-04T15:03:56.140Z,2.97
2018-10-04T15:06:24.869Z,4.40
2018-10-04T15:08:53.593Z,3.80
2018-10-04T15:11:22.361Z,3.73
2018-10-04T15:13:51.095Z,3.47
2018-10-04T15:16:19.870Z,3.10
2018-10-04T15:18:48.547Z,3.97
2018-10-04T15:21:17.289Z,3.27
2018-10-04T15:23:46.039Z,3.53
2018-10-04T15:26:14.778Z,3.50
2018-10-04T15:28:43.522Z,3.60
2018-10-04T15:31:12.355Z,3.57
2018-10-04T15:33:41.025Z,2.90
2018-10-04T15:36:09.836Z,4.00
2018-10-04T15:38:38.515Z,4.00
2018-10-04T15:41:07.232Z,3.20
2018-10-04T15:43:35.946Z,3.50
2018-10-04T15:46:04.683Z,3.10
2018-10-04T15:48:33.498Z,3.17
2018-10-04T15:51:02.195Z,3.77
2018-10-04T15:53:30.995Z,3.33
2018-10-04T15:55:59.725Z,3.87
2018-10-04T15:58:28.479Z,3.57
2018-10-04T16:00:57.217Z,3.50
2018-10-04T16:03:26.034Z,3.43
2018-10-04T16:05:54.741Z,3.50
2018-10-04T16:08:23.423Z,3.17
2018-10-04T16:10:52.114Z,3.50
2018-10-04T16:13:20.848Z,3.20
2018-10-04T16:15:50.991Z,4.10
2018-10-04T16:18:19.731Z,2.83
2018-10-04T16:20:48.419Z,4.03
2018-10-04T16:23:17.098Z,3.67
2018-10-04T16:25:45.840Z,3.80
2018-10-04T16:28:14.611Z,4.70
2018-10-04T16:30:43.324Z,4.13
2018-10-04T16:33:12.126Z,3.40
2018-10-04T16:35:40.863Z,3.10
2018-10-04T16:38:09.630Z,4.10
2018-10-04T16:40:38.398Z,5.10
2018-10-04T16:43:07.124Z,4.03
2018-10-04T16:45:35.831Z,4.83
2018-10-04T16:48:04.548Z,4.60
2018-10-04T16:50:33.351Z,3.90
2018-10-04T16:53:02.401Z,4.23
2018-10-04T16:55:31.214Z,3.30
2018-10-04T16:58:01.252Z,4.17
2018-10-04T17:00:30.239Z,4.30
2018-10-04T17:02:58.994Z,5.13
2018-10-04T17:05:27.956Z,5.13
2018-10-04T17:07:56.801Z,5.10
2018-10-04T17:10:25.753Z,4.93
2018-10-04T17:13:02.411Z,4.97
2018-10-04T17:15:31.391Z,5.70
2018-10-04T17:18:01.350Z,5.50
2018-10-04T17:20:31.256Z,5.90
2018-10-04T17:23:00.043Z,5.57
2018-10-04T17:25:29.014Z,5.03
2018-10-04T17:27:59.235Z,4.37
2018-10-04T17:30:28.113Z,6.23
2018-10-04T17:32:57.036Z,6.30
2018-10-04T17:35:26.315Z,5.80
2018-10-04T17:37:55.448Z,5.40
2018-10-04T17:40:24.334Z,5.60
2018-10-04T17:42:53.301Z,5.70
2018-10-04T17:45:22.171Z,5.07
2018-10-04T17:47:51.271Z,6.00
2018-10-04T17:50:20.049Z,5.20
2018-10-04T17:52:48.893Z,4.57
2018-10-04T17:55:17.858Z,5.17
2018-10-04T17:57:46.758Z,6.23
2018-10-04T18:00:21.506Z,6.33
2018-10-04T18:02:50.531Z,6.47
2018-10-04T18:05:20.278Z,5.90
2018-10-04T18:07:54.261Z,6.20
2018-10-04T18:10:23.316Z,5.83
2018-10-04T18:12:52.290Z,6.27
2018-10-04T18:15:21.385Z,5.90
2018-10-04T18:17:50.217Z,7.70
2018-10-04T18:20:19.268Z,6.73
2018-10-04T18:22:48.037Z,5.90
2018-10-04T18:25:16.941Z,5.27
2018-10-04T18:27:46.261Z,4.93
2018-10-04T18:30:15.832Z,6.07
2018-10-04T18:32:44.863Z,5.30
2018-10-04T18:35:13.938Z,5.77
2018-10-04T18:37:49.498Z,6.20
2018-10-04T18:40:22.222Z,6.43
2018-10-04T18:42:52.955Z,7.40
2018-10-04T18:45:28.147Z,7.63
2018-10-04T18:47:57.038Z,7.80
2018-10-04T18:50:26.068Z,7.10
2018-10-04T18:52:54.756Z,7.47
2018-10-04T18:55:23.457Z,6.50
2018-10-04T18:57:52.190Z,7.30
2018-10-04T19:00:20.894Z,6.10
2018-10-04T19:02:49.639Z,7.63
2018-10-04T19:05:18.391Z,7.00
2018-10-04T19:07:47.204Z,6.37
2018-10-04T19:10:15.872Z,5.63
2018-10-04T19:12:44.910Z,6.77
2018-10-04T19:15:13.677Z,6.87
2018-10-04T19:17:42.458Z,7.50
2018-10-04T19:20:11.315Z,6.77
2018-10-04T19:22:41.485Z,6.90
2018-10-04T19:25:10.206Z,6.40
2018-10-04T19:27:39.078Z,6.27
2018-10-04T19:30:07.847Z,5.83
2018-10-04T19:32:37.381Z,6.70
2018-10-04T19:35:06.152Z,6.43
2018-10-04T19:37:35.352Z,6.60
2018-10-04T19:40:05.866Z,7.07
2018-10-04T19:42:34.644Z,7.27
2018-10-04T19:45:03.483Z,6.30
2018-10-04T19:47:32.354Z,7.93
2018-10-04T19:50:01.094Z,7.40
2018-10-04T19:52:29.796Z,6.70
2018-10-04T19:54:58.545Z,6.90
2018-10-04T19:57:27.402Z,7.20
2018-10-04T19:59:56.183Z,6.47
2018-10-04T20:02:25.186Z,7.20
2018-10-04T20:04:53.918Z,5.83
2018-10-04T20:07:22.649Z,6.20
2018-10-04T20:09:51.618Z,7.80
2018-10-04T20:12:20.248Z,5.77
2018-10-04T20:14:48.971Z,5.50
2018-10-04T20:17:17.683Z,4.70
2018-10-04T20:19:46.433Z,5.60
2018-10-04T20:22:16.083Z,5.37
2018-10-04T20:24:45.993Z,5.30
2018-10-04T20:27:14.738Z,4.77
2018-10-04T20:29:43.470Z,5.23
2018-10-04T20:32:12.180Z,4.83
2018-10-04T20:34:40.938Z,4.87
2018-10-04T20:37:09.596Z,6.50
2018-10-04T20:39:38.328Z,4.83
2018-10-04T20:42:07.072Z,5.10
2018-10-04T20:44:35.806Z,5.10
2018-10-04T20:47:04.531Z,6.20
2018-10-04T20:49:33.204Z,5.33
2018-10-04T20:52:01.913Z,5.83
2018-10-04T20:54:30.574Z,5.30
2018-10-04T20:56:59.265Z,5.23
2018-10-04T20:59:27.945Z,6.27
2018-10-04T21:01:56.680Z,5.67
2018-10-04T21:04:25.521Z,5.47
2018-10-04T21:06:54.299Z,4.87
2018-10-04T21:09:23.014Z,5.20
2018-10-04T21:11:51.760Z,5.10
2018-10-04T21:14:20.447Z,6.13
2018-10-04T21:16:49.146Z,5.93
2018-10-04T21:19:17.856Z,6.10
2018-10-04T21:21:46.552Z,5.33
2018-10-04T21:24:15.237Z,5.73
2018-10-04T21:26:44.780Z,6.57
2018-10-04T21:29:13.490Z,6.07
2018-10-04T21:31:42.167Z,5.80
2018-10-04T21:34:10.910Z,5.07
2018-10-04T21:36:39.602Z,5.80
2018-10-04T21:39:08.318Z,5.50
2018-10-04T21:41:37.308Z,5.60
2018-10-04T21:44:06.040Z,5.80
2018-10-04T21:46:34.802Z,6.03
2018-10-04T21:49:03.465Z,5.60
2018-10-04T21:51:32.078Z,6.73
2018-10-04T21:54:00.902Z,7.30
2018-10-04T21:56:29.402Z,6.20
2018-10-04T21:58:58.122Z,6.70
2018-10-04T22:01:26.799Z,5.27
2018-10-04T22:03:55.516Z,5.80
2018-10-04T22:06:24.129Z,6.10
2018-10-04T22:08:52.880Z,6.97
2018-10-04T22:11:21.463Z,6.70
2018-10-04T22:13:50.021Z,6.90
2018-10-04T22:16:18.614Z,6.10
2018-10-04T22:18:47.417Z,7.13
2018-10-04T22:21:16.186Z,6.77
2018-10-04T22:23:44.823Z,7.47
2018-10-04T22:26:13.434Z,6.07
2018-10-04T22:28:42.021Z,6.77
2018-10-04T22:31:10.606Z,5.93
2018-10-04T22:33:39.180Z,6.03
2018-10-04T22:36:07.799Z,6.30
2018-10-04T22:38:36.385Z,6.20
2018-10-04T22:41:04.976Z,6.00
2018-10-04T22:43:33.562Z,5.80
2018-10-04T22:46:03.259Z,5.50
2018-10-04T22:48:31.950Z,5.60
2018-10-04T22:51:00.610Z,7.87
2018-10-04T22:53:29.151Z,6.00
2018-10-04T22:55:57.812Z,5.80
2018-10-04T22:58:26.410Z,6.60
2018-10-04T23:00:55.005Z,6.20
2018-10-04T23:03:23.559Z,6.70
2018-10-04T23:05:52.142Z,7.87
2018-10-04T23:08:20.738Z,7.13
2018-10-04T23:10:49.390Z,7.20
2018-10-04T23:13:18.101Z,8.30
2018-10-04T23:15:46.792Z,7.70
2018-10-04T23:18:15.525Z,7.93
2018-10-04T23:20:44.182Z,6.80
2018-10-04T23:23:12.813Z,6.80
2018-10-04T23:25:41.492Z,7.20
2018-10-04T23:28:10.193Z,6.93
2018-10-04T23:30:38.843Z,6.20
2018-10-04T23:33:07.503Z,6.17
2018-10-04T23:35:36.218Z,5.87
2018-10-04T23:38:04.913Z,7.23
2018-10-04T23:40:33.691Z,6.03
2018-10-04T23:43:02.471Z,7.40
2018-10-04T23:45:31.125Z,6.10
2018-10-04T23:47:59.823Z,7.03
2018-10-04T23:50:28.510Z,6.53
2018-10-04T23:52:57.171Z,6.73
2018-10-04T23:55:25.839Z,6.90
2018-10-04T23:57:54.614Z,6.57
